KSRQ/SRQ METAR and TAF weather

Enter ICAO airport designator
Station Type Date Time Source
KSRQ METAR 2021/05/14 22:53 UTC NOAA

KSRQ 142253Z 33012KT 10SM CLR 28/18 A3001 RMK AO2 SLP161 T02780183


Station Type Date Time Source
KSRQ Decoded METAR 2021/05/14 22:53 UTC NOAA

SARASOTA/BRADENTON INTERNATIONAL ., FL, United States (KSRQ) 27-24N 082-33W 18M
May 14, 2021 - 06:53 PM EDT / 2021.05.14 2253 UTC
Wind: from the NNW (330 degrees) at 14 MPH (12 KT):0
Visibility: 10 mile(s):0
Sky conditions: clear
Temperature: 82.0 F (27.8 C)
Dew Point: 64.9 F (18.3 C)
Relative Humidity: 56%
Pressure (altimeter): 30.01 in. Hg (1016 hPa)
ob: KSRQ 142253Z 33012KT 10SM CLR 28/18 A3001 RMK AO2 SLP161 T02780183
cycle: 23

Station Type Date Time Source
KSRQ TAF 2021/05/14 18:28 UTC NOAA

TAF KSRQ 141726Z 1418/1518 05009KT P6SM FEW250
FM142000 36015G20KT P6SM SCT250
FM142200 05018G24KT P6SM SCT250
FM150400 06009KT P6SM SKC
FM151400 06012G17KT P6SM FEW250

Example: see airport list